Time;durP1;ratioP1;P1;durP2;ratioP2;P2;SDS_P1;SDS_P2;PMS_P1;PMS_P2;Temp;Humidity;BMP_temperature;BMP_pressure;BME280_temperature;BME280_humidity;BME280_pressure;Samples;Min_cycle;Max_cycle;Signal;HPM_P1;HPM_P2
2022/04/20 00:01:57;;;;;;;8.00;5.00;;;;;;;8.12;100.00;98387.03;5174886;27;20054;-66
2022/04/20 00:04:23;;;;;;;8.57;5.32;;;;;;;8.09;100.00;98367.88;5175004;27;20046;-66
2022/04/20 00:06:50;;;;;;;7.38;5.20;;;;;;;8.06;100.00;98352.25;5174887;27;20432;-65
2022/04/20 00:09:16;;;;;;;8.35;5.65;;;;;;;8.06;100.00;98336.63;5174880;27;20054;-65
2022/04/20 00:11:42;;;;;;;8.73;5.55;;;;;;;7.95;100.00;98335.72;5174896;27;20089;-66
2022/04/20 00:14:09;;;;;;;8.27;5.60;;;;;;;7.99;100.00;98320.94;5175207;27;20089;-65
2022/04/20 00:16:35;;;;;;;10.48;6.05;;;;;;;7.96;100.00;98309.97;5175189;27;20077;-65
2022/04/20 00:19:01;;;;;;;16.20;6.63;;;;;;;8.02;100.00;98311.25;5175033;27;20061;-66
2022/04/20 00:21:27;;;;;;;11.43;6.88;;;;;;;7.99;100.00;98307.31;5174616;27;20052;-65
2022/04/20 00:23:54;;;;;;;8.65;5.75;;;;;;;7.97;100.00;98303.38;5174713;27;20401;-66
2022/04/20 00:26:20;;;;;;;8.18;6.03;;;;;;;7.93;100.00;98295.16;5174479;27;20042;-65
2022/04/20 00:28:46;;;;;;;10.60;5.63;;;;;;;7.96;100.00;98290.88;5174316;27;20050;-65
2022/04/20 00:31:13;;;;;;;9.13;6.30;;;;;;;7.96;100.00;98285.41;5174708;27;20061;-66
2022/04/20 00:33:39;;;;;;;10.27;6.30;;;;;;;7.97;100.00;98281.56;5174433;27;20500;-65
2022/04/20 00:36:06;;;;;;;11.15;7.13;;;;;;;7.98;100.00;98283.13;5174428;27;20053;-67
2022/04/20 00:38:32;;;;;;;13.70;7.18;;;;;;;7.98;100.00;98285.84;5174391;27;20401;-70
2022/04/20 00:40:59;;;;;;;8.80;7.22;;;;;;;7.90;100.00;98282.25;5174510;27;20046;-73
2022/04/20 00:43:27;;;;;;;12.00;7.70;;;;;;;7.87;100.00;98277.53;5174227;27;20053;-70
2022/04/20 00:45:55;;;;;;;21.08;8.13;;;;;;;7.86;100.00;98269.69;5174190;27;20046;-69
2022/04/20 00:48:23;;;;;;;13.25;7.45;;;;;;;7.88;100.00;98259.19;5174209;27;20397;-70
2022/04/20 00:50:49;;;;;;;13.85;8.45;;;;;;;7.82;100.00;98261.44;5174296;27;20050;-69
2022/04/20 00:53:15;;;;;;;11.77;8.18;;;;;;;7.90;100.00;98252.22;5174093;27;20492;-68
2022/04/20 00:55:41;;;;;;;18.10;9.00;;;;;;;7.94;100.00;98247.59;5174082;27;20046;-68
2022/04/20 00:58:08;;;;;;;12.10;8.43;;;;;;;7.93;100.00;98242.50;5173879;27;20050;-68
2022/04/20 01:00:34;;;;;;;14.82;9.25;;;;;;;7.88;100.00;98229.97;5173976;27;20055;-68
2022/04/20 01:03:01;;;;;;;12.00;8.90;;;;;;;7.91;100.00;98237.41;5174233;27;20058;-69
2022/04/20 01:05:27;;;;;;;19.60;10.65;;;;;;;7.88;100.00;98232.69;5173995;27;20050;-68
2022/04/20 01:07:55;;;;;;;18.08;9.85;;;;;;;7.90;100.00;98230.38;5173795;27;20092;-68
2022/04/20 01:10:22;;;;;;;16.08;8.77;;;;;;;7.89;100.00;98238.94;5173668;27;20050;-69
2022/04/20 01:12:48;;;;;;;13.32;8.98;;;;;;;7.82;100.00;98222.47;5174037;27;20126;-68
2022/04/20 01:15:14;;;;;;;19.55;9.93;;;;;;;7.85;100.00;98227.19;5173749;27;20046;-69
2022/04/20 01:17:42;;;;;;;20.55;10.82;;;;;;;7.90;100.00;98226.88;5173788;27;20046;-68
2022/04/20 01:20:12;;;;;;;18.27;11.15;;;;;;;7.92;100.00;98227.28;5173688;27;20045;-68
2022/04/20 01:22:39;;;;;;;19.30;11.13;;;;;;;7.97;100.00;98216.84;5173607;27;20078;-69
2022/04/20 01:25:07;;;;;;;17.92;11.27;;;;;;;7.91;100.00;98221.03;5173936;27;20046;-71
2022/04/20 01:27:34;;;;;;;18.65;11.55;;;;;;;7.87;100.00;98203.84;5173687;27;20078;-72
2022/04/20 01:30:00;;;;;;;18.88;10.88;;;;;;;7.86;100.00;98204.19;5173400;27;20046;-72
2022/04/20 01:32:26;;;;;;;19.17;12.35;;;;;;;7.83;100.00;98200.28;5173575;27;20094;-72
2022/04/20 01:34:53;;;;;;;23.08;12.45;;;;;;;7.79;100.00;98189.28;5173632;27;20095;-71
2022/04/20 01:37:19;;;;;;;22.85;11.35;;;;;;;7.77;100.00;98193.56;5173206;27;20050;-71
2022/04/20 01:39:46;;;;;;;18.88;12.10;;;;;;;7.84;100.00;98192.88;5173521;27;20533;-71
2022/04/20 01:42:12;;;;;;;17.95;11.55;;;;;;;7.90;100.00;98192.19;5173462;27;20121;-69
2022/04/20 01:44:38;;;;;;;20.73;11.35;;;;;;;7.86;100.00;98183.16;5173420;27;20397;-68
2022/04/20 01:47:05;;;;;;;18.58;10.68;;;;;;;7.89;100.00;98193.31;5173089;27;20058;-68
2022/04/20 01:49:31;;;;;;;19.30;12.02;;;;;;;7.90;100.00;98172.31;5173135;27;20102;-68
2022/04/20 01:51:58;;;;;;;17.63;12.05;;;;;;;7.91;100.00;98192.97;5172943;27;20050;-68
2022/04/20 01:54:24;;;;;;;20.30;11.80;;;;;;;7.92;100.00;98170.75;5173092;27;20054;-68
2022/04/20 01:56:52;;;;;;;22.52;10.73;;;;;;;7.89;100.00;98171.50;5172420;27;20098;-69
2022/04/20 01:59:18;;;;;;;17.95;10.73;;;;;;;7.89;100.00;98182.41;5173212;27;20339;-67
2022/04/20 02:04:29;;;;;;;21.85;10.60;;;;;;;7.92;100.00;98191.81;5173044;27;20432;-68
2022/04/20 02:06:56;;;;;;;19.17;11.98;;;;;;;7.89;100.00;98217.09;5172886;27;20053;-68
2022/04/20 02:09:24;;;;;;;23.33;11.38;;;;;;;7.88;100.00;98199.94;5172862;27;20061;-68
2022/04/20 02:11:51;;;;;;;23.67;11.80;;;;;;;7.85;100.00;98208.88;5172942;27;20144;-69
2022/04/20 02:14:17;;;;;;;24.48;12.70;;;;;;;7.82;100.00;98204.16;5172627;27;20046;-68
2022/04/20 02:16:43;;;;;;;22.48;13.88;;;;;;;7.81;100.00;98199.84;5172802;27;20416;-68
2022/04/20 02:19:09;;;;;;;21.73;13.10;;;;;;;7.86;100.00;98212.38;5172658;27;20411;-67
2022/04/20 02:21:35;;;;;;;23.80;13.63;;;;;;;7.86;100.00;98226.81;5172603;27;20050;-67
2022/04/20 02:24:02;;;;;;;20.65;12.75;;;;;;;7.87;100.00;98209.28;5172711;27;20060;-67
2022/04/20 02:26:28;;;;;;;19.70;12.52;;;;;;;7.86;100.00;98217.84;5172613;27;20046;-67
2022/04/20 02:28:55;;;;;;;25.15;13.20;;;;;;;7.86;100.00;98190.56;5172803;27;20099;-68
2022/04/20 02:31:21;;;;;;;26.63;14.60;;;;;;;7.79;100.00;98199.44;5172581;27;20047;-67
2022/04/20 02:33:47;;;;;;;22.48;13.73;;;;;;;7.83;100.00;98216.66;5173099;27;20052;-67
2022/04/20 02:36:13;;;;;;;22.63;13.23;;;;;;;7.83;100.00;98196.75;5172761;27;20093;-67
2022/04/20 02:38:40;;;;;;;20.65;13.13;;;;;;;7.85;100.00;98203.41;5172761;27;20068;-67
2022/04/20 02:41:07;;;;;;;25.23;13.25;;;;;;;7.83;100.00;98205.75;5172436;27;20056;-67
2022/04/20 02:43:33;;;;;;;24.88;13.88;;;;;;;7.74;100.00;98208.72;5172866;27;20052;-67
2022/04/20 02:46:00;;;;;;;27.92;14.10;;;;;;;7.71;100.00;98204.00;5172189;27;20432;-67
2022/04/20 02:48:26;;;;;;;21.70;13.05;;;;;;;7.74;100.00;98210.69;5172279;27;20053;-66
2022/04/20 02:50:53;;;;;;;31.65;16.17;;;;;;;7.75;100.00;98206.78;5172504;27;20042;-66
2022/04/20 02:53:19;;;;;;;24.40;12.50;;;;;;;7.85;100.00;98205.34;5172143;27;20065;-67
2022/04/20 02:55:45;;;;;;;22.30;13.50;;;;;;;7.73;100.00;98201.72;5172542;27;20042;-66
2022/04/20 02:58:11;;;;;;;24.42;13.80;;;;;;;7.77;100.00;98215.41;5172201;27;20512;-66
2022/04/20 03:00:38;;;;;;;26.65;15.02;;;;;;;7.77;100.00;98202.53;5172322;27;20054;-66
2022/04/20 03:03:05;;;;;;;23.70;14.00;;;;;;;7.82;100.00;98212.34;5172037;27;20050;-65
2022/04/20 03:05:31;;;;;;;26.80;14.65;;;;;;;7.83;100.00;98202.19;5172222;27;20415;-65
2022/04/20 03:07:57;;;;;;;24.60;14.02;;;;;;;7.76;100.00;98211.88;5172199;27;20050;-66
2022/04/20 03:10:24;;;;;;;28.88;14.18;;;;;;;7.77;100.00;98220.84;5175979;27;20046;-65
2022/04/20 03:12:50;;;;;;;30.83;15.57;;;;;;;7.74;100.00;98216.91;5175559;27;20054;-65
2022/04/20 03:15:17;;;;;;;25.15;14.80;;;;;;;7.70;100.00;98212.56;5175774;27;20047;-65
2022/04/20 03:17:43;;;;;;;26.15;14.35;;;;;;;7.79;100.00;98218.53;5175550;27;20054;-65
2022/04/20 03:20:11;;;;;;;30.35;15.40;;;;;;;7.79;100.00;98213.06;5175854;27;20125;-65
2022/04/20 03:22:37;;;;;;;27.67;14.80;;;;;;;7.79;100.00;98213.06;5175746;27;20050;-64
2022/04/20 03:25:05;;;;;;;24.65;14.57;;;;;;;7.81;100.00;98223.63;5175467;27;20098;-65
2022/04/20 03:27:31;;;;;;;24.70;14.80;;;;;;;7.84;100.00;98226.41;5175718;27;20050;-65
2022/04/20 03:29:57;;;;;;;27.25;15.35;;;;;;;7.81;100.00;98227.13;5175313;27;20046;-64
2022/04/20 03:32:23;;;;;;;24.98;14.85;;;;;;;7.84;100.00;98220.94;5175708;27;20068;-65
2022/04/20 03:34:50;;;;;;;26.75;14.75;;;;;;;7.79;100.00;98237.63;5175291;27;20053;-64
2022/04/20 03:37:17;;;;;;;25.00;14.90;;;;;;;7.75;100.00;98236.78;5175618;27;20050;-64
2022/04/20 03:39:44;;;;;;;24.35;14.65;;;;;;;7.66;100.00;98228.88;5175093;27;20054;-65
2022/04/20 03:42:10;;;;;;;25.15;14.73;;;;;;;7.69;100.00;98244.50;5175326;27;20505;-65
2022/04/20 03:44:36;;;;;;;29.00;16.00;;;;;;;7.65;100.00;98242.88;5175103;27;20046;-64
2022/04/20 03:47:03;;;;;;;30.15;16.05;;;;;;;7.68;100.00;98244.88;5175292;27;20046;-65
2022/04/20 03:49:30;;;;;;;30.83;16.58;;;;;;;7.68;100.00;98231.25;5174951;27;20061;-64
2022/04/20 03:51:56;;;;;;;34.40;18.27;;;;;;;7.67;100.00;98235.13;5175104;27;20141;-65
2022/04/20 03:54:23;;;;;;;29.88;17.50;;;;;;;7.72;100.00;98245.72;5175282;27;20053;-64
2022/04/20 03:57:04;;;;;;;37.42;18.40;;;;;;;7.82;100.00;98227.91;5175090;27;20568;-65
2022/04/20 03:59:31;;;;;;;32.83;16.77;;;;;;;7.74;100.00;98241.47;5175414;27;20532;-64
2022/04/20 04:01:57;;;;;;;30.38;16.92;;;;;;;7.83;100.00;98243.13;5174983;27;20071;-64
2022/04/20 04:04:24;;;;;;;36.95;18.83;;;;;;;7.77;100.00;98239.97;5175082;27;20102;-64
2022/04/20 04:06:50;;;;;;;32.45;16.80;;;;;;;7.75;100.00;98250.44;5174761;27;20057;-65
2022/04/20 04:09:17;;;;;;;33.83;17.40;;;;;;;7.78;100.00;98255.94;5174694;27;20054;-64
2022/04/20 04:11:44;;;;;;;34.80;18.05;;;;;;;7.75;100.00;98264.06;5174716;27;20065;-64
2022/04/20 04:14:10;;;;;;;26.13;13.98;;;;;;;7.67;100.00;98249.56;5174988;27;20050;-64
2022/04/20 04:16:36;;;;;;;40.03;18.65;;;;;;;7.67;100.00;98259.69;5174861;27;20050;-64
2022/04/20 04:19:03;;;;;;;32.50;18.58;;;;;;;7.68;100.00;98272.94;5174169;27;20069;-64
2022/04/20 04:21:30;;;;;;;30.52;17.42;;;;;;;7.69;100.00;98273.72;5174834;27;20057;-65
2022/04/20 04:23:56;;;;;;;29.42;15.98;;;;;;;7.62;100.00;98255.31;5174573;27;20052;-64
2022/04/20 04:26:22;;;;;;;34.10;17.25;;;;;;;7.65;100.00;98259.25;5174912;27;20050;-64
2022/04/20 04:28:49;;;;;;;34.78;19.23;;;;;;;7.64;100.00;98247.56;5174247;27;20056;-65
2022/04/20 04:31:15;;;;;;;33.90;16.65;;;;;;;7.68;100.00;98256.56;5174638;27;20053;-64
2022/04/20 04:33:41;;;;;;;28.88;16.92;;;;;;;7.74;100.00;98237.97;5174404;27;20057;-64
2022/04/20 04:36:07;;;;;;;33.53;17.77;;;;;;;7.70;100.00;98261.69;5174466;27;20466;-64
2022/04/20 04:38:34;;;;;;;30.88;17.00;;;;;;;7.75;100.00;98267.59;5174314;27;20054;-64
2022/04/20 04:41:00;;;;;;;32.38;15.70;;;;;;;7.64;100.00;98244.06;5174190;27;20050;-64
2022/04/20 04:43:26;;;;;;;34.63;20.50;;;;;;;7.62;100.00;98255.31;5174368;27;20050;-64
2022/04/20 04:48:39;;;;;;;30.42;15.73;;;;;;;7.66;100.00;98264.34;5174580;27;20560;-64
2022/04/20 04:51:06;;;;;;;28.45;15.88;;;;;;;7.63;100.00;98256.09;5173913;27;20046;-65
2022/04/20 04:53:32;;;;;;;30.73;16.25;;;;;;;7.63;100.00;98261.56;5174167;27;20046;-65
2022/04/20 04:55:58;;;;;;;29.27;16.20;;;;;;;7.57;100.00;98261.09;5173871;27;20064;-65
2022/04/20 04:58:24;;;;;;;30.33;16.23;;;;;;;7.65;100.00;98253.81;5174127;27;20050;-65
2022/04/20 05:00:51;;;;;;;28.05;15.88;;;;;;;7.67;100.00;98255.00;5173593;27;20048;-65
2022/04/20 05:03:18;;;;;;;27.42;14.95;;;;;;;7.65;100.00;98270.16;5173819;27;20549;-65
2022/04/20 05:05:44;;;;;;;27.10;14.35;;;;;;;7.57;100.00;98273.94;5173851;27;20405;-65
2022/04/20 05:08:10;;;;;;;28.83;14.63;;;;;;;7.55;100.00;98280.53;5173768;27;20451;-65
2022/04/20 05:10:37;;;;;;;24.67;15.05;;;;;;;7.59;100.00;98266.19;5173930;27;20136;-65
2022/04/20 05:13:03;;;;;;;22.30;13.43;;;;;;;7.71;100.00;98272.22;5173625;27;20046;-74
2022/04/20 05:16:12;;;;;;;25.23;13.80;;;;;;;7.70;100.00;98280.78;5174443;27;20046;-74
2022/04/20 05:18:39;;;;;;;18.90;12.57;;;;;;;7.69;100.00;98279.19;5174031;27;20057;-68
2022/04/20 05:21:05;;;;;;;25.90;14.27;;;;;;;7.75;100.00;98283.97;5174019;27;20718;-64
2022/04/20 05:23:32;;;;;;;21.48;13.32;;;;;;;7.86;100.00;98283.31;5173856;27;20165;-67
2022/04/20 05:25:58;;;;;;;23.30;13.38;;;;;;;7.78;100.00;98283.22;5173756;27;20050;-62
2022/04/20 05:28:24;;;;;;;20.48;12.98;;;;;;;7.74;100.00;98287.06;5173645;27;20057;-62
2022/04/20 05:30:50;;;;;;;18.05;12.43;;;;;;;7.77;100.00;98302.72;5172249;27;20050;-70
2022/04/20 05:33:16;;;;;;;26.98;13.52;;;;;;;7.71;100.00;98296.78;5173675;27;20050;-62
2022/04/20 05:35:43;;;;;;;22.90;14.05;;;;;;;7.81;100.00;98336.28;5173367;27;20520;-64
2022/04/20 05:43:50;;;;;;;;;;;;;;;7.92;100.00;98304.47;5169131;27;20771;-64
2022/04/20 05:46:16;;;;;;;22.30;11.98;;;;;;;7.83;100.00;98316.81;5173377;27;19923;-62
2022/04/20 05:48:42;;;;;;;18.00;11.38;;;;;;;7.85;100.00;98325.41;5173244;27;20058;-62
2022/04/20 05:51:10;;;;;;;20.92;12.63;;;;;;;7.82;100.00;98321.47;5173440;27;20046;-64
2022/04/20 05:53:36;;;;;;;21.60;12.63;;;;;;;7.87;100.00;98334.03;5173176;27;20050;-63
2022/04/20 05:56:04;;;;;;;16.83;11.32;;;;;;;7.90;100.00;98327.84;5173412;27;20091;-63
2022/04/20 05:58:30;;;;;;;20.05;10.63;;;;;;;7.92;100.00;98323.56;5172873;27;20524;-63
2022/04/20 06:00:56;;;;;;;20.38;11.80;;;;;;;7.93;100.00;98343.47;5173034;27;20082;-68
2022/04/20 06:03:23;;;;;;;16.40;10.30;;;;;;;7.85;100.00;98337.13;5172601;27;20053;-73
2022/04/20 06:05:49;;;;;;;14.98;9.50;;;;;;;7.87;100.00;98342.22;5172766;27;20050;-72
2022/04/20 06:08:16;;;;;;;13.43;10.15;;;;;;;7.83;100.00;98334.00;5172334;27;20054;-70
2022/04/20 06:10:44;;;;;;;14.73;9.60;;;;;;;7.94;100.00;98334.94;5172769;27;20063;-61
2022/04/20 06:13:10;;;;;;;16.17;10.02;;;;;;;7.96;100.00;98334.53;5172533;27;20050;-62
2022/04/20 06:15:36;;;;;;;15.50;9.57;;;;;;;7.95;100.00;98338.44;5172490;27;20050;-62
2022/04/20 06:18:03;;;;;;;15.68;9.90;;;;;;;7.94;100.00;98355.97;5172285;27;20042;-73
2022/04/20 06:20:29;;;;;;;19.52;10.60;;;;;;;7.96;100.00;98343.53;5172328;27;20050;-63
2022/04/20 06:22:55;;;;;;;15.35;10.18;;;;;;;7.89;100.00;98348.09;5172134;27;20046;-63
2022/04/20 06:25:22;;;;;;;14.00;8.93;;;;;;;7.90;100.00;98344.22;5172098;27;20050;-61
2022/04/20 06:27:48;;;;;;;14.95;9.70;;;;;;;7.87;100.00;98350.41;5171992;27;20050;-62
2022/04/20 06:30:14;;;;;;;18.17;10.77;;;;;;;7.76;100.00;98351.03;5171956;27;20064;-56
2022/04/20 06:32:41;;;;;;;14.82;9.52;;;;;;;7.68;100.00;98341.16;5171923;27;20052;-59
2022/04/20 06:35:08;;;;;;;17.80;10.75;;;;;;;7.80;100.00;98348.38;5172306;27;20050;-60
2022/04/20 06:37:34;;;;;;;17.00;8.73;;;;;;;7.84;100.00;98346.47;5172253;27;20515;-63
2022/04/20 06:40:00;;;;;;;12.18;8.43;;;;;;;7.85;100.00;98339.06;5172424;27;20046;-59
2022/04/20 06:42:28;;;;;;;14.10;8.85;;;;;;;7.94;100.00;98332.19;5171891;27;20062;-59
2022/04/20 06:44:54;;;;;;;12.57;8.85;;;;;;;7.96;100.00;98348.19;5172314;27;20090;-61
2022/04/20 06:47:20;;;;;;;15.30;9.52;;;;;;;7.93;100.00;98359.84;5172195;27;20050;-65
2022/04/20 06:49:46;;;;;;;13.32;9.30;;;;;;;7.90;100.00;98349.69;5172112;27;20072;-66
2022/04/20 07:00:26;;;;;;;9.98;6.78;;;;;;;8.16;100.00;98381.63;5172194;27;20338;-64
2022/04/20 07:02:59;;;;;;;10.93;6.85;;;;;;;8.16;100.00;98390.63;5171898;27;20601;-63
2022/04/20 07:05:25;;;;;;;10.35;7.20;;;;;;;8.14;100.00;98381.22;5171815;27;20049;-60
2022/04/20 07:07:51;;;;;;;12.13;7.72;;;;;;;8.21;100.00;98384.84;5172379;27;20412;-65
2022/04/20 07:10:18;;;;;;;10.48;7.25;;;;;;;8.20;100.00;98391.47;5171862;27;20050;-67
2022/04/20 07:12:45;;;;;;;10.40;7.55;;;;;;;8.22;100.00;98396.56;5172303;27;20050;-74
2022/04/20 07:15:11;;;;;;;8.93;6.95;;;;;;;8.22;100.00;98405.53;5172257;27;20051;-67
2022/04/20 07:17:37;;;;;;;9.27;6.57;;;;;;;8.20;100.00;98409.81;5172458;27;20046;-61
2022/04/20 07:20:06;;;;;;;11.02;6.85;;;;;;;8.18;100.00;98412.88;5171774;27;20050;-66
2022/04/20 07:22:33;;;;;;;13.07;7.53;;;;;;;8.28;100.00;98416.94;5172046;27;20046;-62
2022/04/20 07:25:00;;;;;;;11.82;6.47;;;;;;;8.24;100.00;98416.09;5171188;27;20050;-61
2022/04/20 07:27:26;;;;;;;12.32;6.72;;;;;;;8.16;100.00;98422.59;5171330;27;20050;-64
2022/04/20 07:29:53;;;;;;;9.30;6.50;;;;;;;8.23;100.00;98430.88;5171246;27;20093;-62
2022/04/20 07:32:19;;;;;;;8.98;6.75;;;;;;;8.30;100.00;98422.81;5171245;27;20061;-61
2022/04/20 07:34:45;;;;;;;8.27;6.18;;;;;;;8.29;100.00;98409.53;5171667;27;20119;-62
2022/04/20 07:37:12;;;;;;;7.88;5.72;;;;;;;8.16;100.00;98422.59;5170885;27;20050;-61
2022/04/20 07:39:38;;;;;;;8.00;6.15;;;;;;;8.14;100.00;98428.44;5171741;27;20058;-59
2022/04/20 07:42:06;;;;;;;9.90;6.78;;;;;;;8.18;100.00;98421.06;5171196;27;20053;-64
2022/04/20 07:44:32;;;;;;;7.28;6.05;;;;;;;8.20;100.00;98426.19;5171562;27;20046;-60
2022/04/20 07:46:59;;;;;;;9.45;5.45;;;;;;;8.30;100.00;98420.09;5171300;27;20046;-66
2022/04/20 07:52:09;;;;;;;5.57;4.95;;;;;;;8.11;100.00;98431.09;5171521;27;20048;-59
2022/04/20 07:54:35;;;;;;;7.28;5.80;;;;;;;8.16;100.00;98430.78;5172444;27;20050;-62
2022/04/20 07:57:02;;;;;;;7.60;5.30;;;;;;;8.23;100.00;98425.41;5175194;27;20046;-70
2022/04/20 07:59:28;;;;;;;6.30;5.40;;;;;;;8.26;100.00;98427.41;5175196;27;20424;-61
2022/04/20 08:01:54;;;;;;;6.40;4.90;;;;;;;8.24;100.00;98436.00;5174900;27;20042;-61
2022/04/20 08:04:22;;;;;;;8.38;5.00;;;;;;;8.19;100.00;98454.63;5174731;27;20424;-61
2022/04/20 08:06:48;;;;;;;6.10;4.72;;;;;;;8.08;100.00;98453.69;5174944;27;20073;-61
2022/04/20 08:09:14;;;;;;;5.18;4.40;;;;;;;8.14;100.00;98444.81;5174361;27;20046;-62
2022/04/20 08:11:40;;;;;;;6.90;5.43;;;;;;;8.12;100.00;98462.69;5174587;27;20046;-60
2022/04/20 08:14:10;;;;;;;5.20;4.40;;;;;;;7.95;100.00;98450.34;5174450;27;20417;-60
2022/04/20 08:16:36;;;;;;;7.70;5.07;;;;;;;8.05;100.00;98448.94;5174462;27;20046;-61
2022/04/20 08:19:03;;;;;;;4.78;3.95;;;;;;;8.07;100.00;98436.50;5174077;27;20204;-61
2022/04/20 08:21:30;;;;;;;6.97;4.05;;;;;;;8.02;100.00;98448.50;5174196;27;20058;-58
2022/04/20 08:23:56;;;;;;;6.70;4.13;;;;;;;8.05;100.00;98451.66;5174099;27;20050;-59
2022/04/20 08:26:22;;;;;;;8.50;4.00;;;;;;;8.11;100.00;98444.75;5174297;27;20057;-58
2022/04/20 08:28:48;;;;;;;5.72;4.47;;;;;;;8.17;100.00;98454.22;5174615;27;20047;-58
2022/04/20 08:31:15;;;;;;;5.15;4.53;;;;;;;8.01;100.00;98471.50;5174401;27;20046;-61
2022/04/20 08:33:41;;;;;;;6.50;4.47;;;;;;;7.92;100.00;98461.97;5174624;27;20466;-62
2022/04/20 08:36:07;;;;;;;5.40;4.13;;;;;;;7.83;100.00;98472.34;5174067;27;20050;-62
2022/04/20 08:38:36;;;;;;;5.88;4.72;;;;;;;7.84;100.00;98465.75;5174584;27;20428;-62
2022/04/20 08:41:03;;;;;;;7.20;4.93;;;;;;;7.93;100.00;98460.81;5174069;27;20523;-61
2022/04/20 08:43:32;;;;;;;5.40;4.78;;;;;;;7.94;100.00;98455.00;5174356;27;20099;-62
2022/04/20 08:45:59;;;;;;;5.60;4.45;;;;;;;8.01;100.00;98460.59;5174181;27;20576;-62
2022/04/20 08:48:26;;;;;;;5.75;4.50;;;;;;;7.99;100.00;98453.91;5173717;27;20049;-61
2022/04/20 08:50:53;;;;;;;6.60;5.18;;;;;;;7.97;100.00;98457.03;5174003;27;20072;-61
2022/04/20 08:53:20;;;;;;;6.10;5.38;;;;;;;8.00;100.00;98456.28;5173417;27;20432;-61
2022/04/20 08:55:48;;;;;;;6.28;4.95;;;;;;;8.17;100.00;98451.50;5173793;27;20071;-62
2022/04/20 08:58:15;;;;;;;7.63;5.22;;;;;;;8.19;100.00;98465.53;5173792;27;20051;-61
2022/04/20 09:00:41;;;;;;;6.78;4.70;;;;;;;8.13;100.00;98456.91;5173880;27;20046;-62
2022/04/20 09:03:08;;;;;;;5.78;4.13;;;;;;;8.14;100.00;98455.72;5173656;27;20042;-62
2022/04/20 09:05:35;;;;;;;5.53;3.88;;;;;;;8.24;100.00;98460.56;5173713;27;20054;-61
2022/04/20 09:08:09;;;;;;;5.47;4.15;;;;;;;8.27;100.00;98458.28;5173849;27;20054;-59
2022/04/20 09:10:36;;;;;;;6.00;4.22;;;;;;;8.35;100.00;98449.03;5173858;27;20046;-58
2022/04/20 09:13:04;;;;;;;5.75;4.03;;;;;;;8.42;100.00;98451.88;5173557;27;20042;-58
2022/04/20 09:15:32;;;;;;;5.50;3.88;;;;;;;8.55;100.00;98449.72;5173359;27;20077;-57
2022/04/20 09:18:01;;;;;;;3.90;3.50;;;;;;;8.63;100.00;98459.59;5173025;27;20046;-57
2022/04/20 09:20:28;;;;;;;4.88;4.05;;;;;;;8.53;100.00;98466.50;5173802;27;20058;-60
2022/04/20 09:23:02;;;;;;;4.63;4.03;;;;;;;8.48;100.00;98473.06;5173817;27;20529;-63
2022/04/20 09:25:30;;;;;;;6.30;3.33;;;;;;;8.49;100.00;98488.28;5173565;27;20050;-55
2022/04/20 09:27:56;;;;;;;5.93;3.75;;;;;;;8.37;100.00;98496.66;5173817;27;20507;-60
2022/04/20 09:30:23;;;;;;;3.45;3.15;;;;;;;8.36;100.00;98516.13;5173473;27;20065;-60
2022/04/20 09:32:49;;;;;;;3.78;3.28;;;;;;;8.31;100.00;98500.06;5173710;27;20054;-60
2022/04/20 09:35:18;;;;;;;3.13;2.83;;;;;;;8.32;100.00;98496.19;5173332;27;20488;-60
2022/04/20 09:37:45;;;;;;;4.22;3.33;;;;;;;8.40;100.00;98509.63;5173398;27;20043;-60
2022/04/20 09:40:13;;;;;;;3.45;2.95;;;;;;;8.39;100.00;98504.50;5173326;27;20057;-60
2022/04/20 09:42:59;;;;;;;4.00;3.33;;;;;;;8.24;100.00;98500.75;5173137;27;20496;-60
2022/04/20 09:45:26;;;;;;;4.85;3.00;;;;;;;8.29;100.00;98508.63;5173417;27;20094;-59
2022/04/20 09:50:37;;;;;;;4.43;3.38;;;;;;;8.12;100.00;98509.91;5173019;27;20174;-57
2022/04/20 09:53:07;;;;;;;4.63;3.70;;;;;;;8.17;100.00;98500.63;5173040;27;20050;-60
2022/04/20 09:55:35;;;;;;;4.60;3.95;;;;;;;8.18;100.00;98497.53;5172740;27;20057;-60
2022/04/20 09:58:12;;;;;;;4.45;3.70;;;;;;;8.27;100.00;98500.03;5172966;27;20047;-60
2022/04/20 10:00:40;;;;;;;4.97;4.10;;;;;;;8.34;100.00;98489.22;5172915;27;20079;-60
2022/04/20 10:03:07;;;;;;;4.90;3.75;;;;;;;8.34;100.00;98488.41;5172908;27;20087;-60
2022/04/20 10:05:34;;;;;;;4.00;3.22;;;;;;;8.30;100.00;98496.56;5172944;27;20069;-60
2022/04/20 10:08:01;;;;;;;5.28;3.58;;;;;;;8.31;100.00;98503.59;5172588;27;20057;-60
2022/04/20 10:10:28;;;;;;;4.35;3.58;;;;;;;8.46;100.00;98510.91;5172608;27;20432;-61
2022/04/20 10:12:57;;;;;;;5.03;3.58;;;;;;;8.52;100.00;98503.16;5172549;27;20050;-60
2022/04/20 10:18:28;;;;;;;3.65;3.20;;;;;;;8.62;100.00;98520.88;5087272;28;20106;-60
2022/04/20 10:20:57;;;;;;;4.20;3.20;;;;;;;8.51;100.00;98511.72;5087876;28;20443;-60
2022/04/20 10:23:25;;;;;;;2.80;2.47;;;;;;;8.54;100.00;98538.31;5127538;27;20061;-60
2022/04/20 10:25:53;;;;;;;2.60;2.40;;;;;;;8.40;100.00;98523.28;5172016;27;20102;-59
2022/04/20 10:28:29;;;;;;;3.17;2.90;;;;;;;8.36;100.00;98540.72;5172114;27;20093;-59
2022/04/20 10:31:13;;;;;;;4.30;3.08;;;;;;;8.33;100.00;98547.72;5172271;27;20046;-60
2022/04/20 10:33:41;;;;;;;3.67;3.10;;;;;;;8.37;100.00;98539.59;5172970;27;20099;-58
2022/04/20 10:36:11;;;;;;;3.47;3.03;;;;;;;8.40;100.00;98545.13;5172213;27;20054;-59
2022/04/20 10:38:38;;;;;;;3.05;2.83;;;;;;;8.35;100.00;98544.63;5172201;27;20140;-58
2022/04/20 10:41:08;;;;;;;3.97;3.38;;;;;;;8.21;100.00;98553.34;5172061;27;20458;-58
2022/04/20 10:43:39;;;;;;;5.40;3.63;;;;;;;8.17;100.00;98545.09;5171990;27;20053;-58
2022/04/20 10:46:15;;;;;;;3.45;3.15;;;;;;;8.13;100.00;98551.63;5171934;27;20090;-58
2022/04/20 10:48:46;;;;;;;3.10;2.80;;;;;;;7.97;100.00;98538.13;5172242;27;20522;-59
2022/04/20 10:51:14;;;;;;;3.83;3.42;;;;;;;7.98;100.00;98532.28;5172286;27;20047;-59
2022/04/20 10:53:42;;;;;;;5.00;2.80;;;;;;;8.08;100.00;98528.16;5171752;27;20054;-60
2022/04/20 10:56:09;;;;;;;3.28;2.85;;;;;;;7.82;100.00;98534.31;5172205;27;20501;-60
2022/04/20 10:58:35;;;;;;;4.70;3.05;;;;;;;7.84;100.00;98521.13;5171511;27;20069;-62
2022/04/20 11:01:09;;;;;;;3.70;3.13;;;;;;;7.90;100.00;98516.16;5171523;27;20520;-62
2022/04/20 11:04:08;;;;;;;7.53;3.30;;;;;;;7.93;100.00;98510.75;5171586;27;20046;-62
2022/04/20 11:07:12;;;;;;;4.07;2.63;;;;;;;7.97;100.00;98516.28;5162600;27;20057;-62
2022/04/20 11:10:05;;;;;;;7.20;3.45;;;;;;;7.72;100.00;98511.13;5171354;27;20062;-64
2022/04/20 11:18:42;;;;;;;6.97;3.08;;;;;;;7.65;100.00;98499.31;5171262;27;20156;-64
2022/04/20 11:21:20;;;;;;;6.03;3.42;;;;;;;7.69;100.00;98492.75;5171310;27;20046;-64
2022/04/20 11:24:02;;;;;;;5.15;3.20;;;;;;;7.58;100.00;98488.28;5171142;27;20072;-63
2022/04/20 11:26:32;;;;;;;7.30;3.33;;;;;;;7.61;100.00;98482.09;5171747;27;20058;-63
2022/04/20 11:29:01;;;;;;;4.55;3.60;;;;;;;7.64;100.00;98481.38;5171604;27;20050;-62
2022/04/20 11:31:34;;;;;;;9.13;3.58;;;;;;;7.68;100.00;98477.56;5175302;27;20426;-63
2022/04/20 11:34:00;;;;;;;12.18;3.17;;;;;;;7.63;100.00;98472.41;5174893;27;20051;-65
2022/04/20 11:36:26;;;;;;;5.40;3.47;;;;;;;7.58;100.00;98475.41;5175225;27;20401;-65
2022/04/20 11:38:53;;;;;;;4.57;3.33;;;;;;;7.55;100.00;98465.22;5174785;27;20050;-67
2022/04/20 11:41:20;;;;;;;4.90;3.53;;;;;;;7.71;100.00;98451.50;5174788;27;20049;-65
2022/04/20 11:43:49;;;;;;;3.90;2.90;;;;;;;7.72;100.00;98459.31;5174532;27;20054;-64
2022/04/20 11:46:20;;;;;;;5.97;2.88;;;;;;;7.60;100.00;98462.22;5174642;27;20050;-65
2022/04/20 11:48:54;;;;;;;3.20;2.80;;;;;;;7.53;100.00;98475.69;5174816;27;20046;-64
2022/04/20 11:51:23;;;;;;;3.30;2.50;;;;;;;7.60;100.00;98470.41;5174817;27;20054;-64
2022/04/20 11:53:49;;;;;;;6.03;3.13;;;;;;;7.68;100.00;98461.19;5174771;27;20396;-63
2022/04/20 11:56:16;;;;;;;3.85;2.85;;;;;;;7.62;100.00;98453.66;5174606;27;20046;-64
2022/04/20 11:58:49;;;;;;;7.00;2.90;;;;;;;7.62;100.00;98442.75;5174872;27;20504;-64
2022/04/20 12:01:15;;;;;;;4.53;2.80;;;;;;;7.74;100.00;98450.78;5174419;27;20505;-66